sensor_id;sensor_type;location;lat;lon;timestamp;pressure;altitude;pressure_sealevel;temperature;humidity
83104;BME280;72975;48.134;11.630;2024-02-21T00:02:18;96523.34;;;4.69;65.95
83104;BME280;72975;48.134;11.630;2024-02-21T00:04:48;96518.59;;;4.59;66.05
83104;BME280;72975;48.134;11.630;2024-02-21T00:07:16;96516.19;;;4.71;65.57
83104;BME280;72975;48.134;11.630;2024-02-21T00:09:44;96513.00;;;4.75;65.84
83104;BME280;72975;48.134;11.630;2024-02-21T00:12:12;96520.97;;;4.74;65.54
83104;BME280;72975;48.134;11.630;2024-02-21T00:14:41;96516.81;;;4.60;66.29
83104;BME280;72975;48.134;11.630;2024-02-21T00:17:11;96517.00;;;4.58;66.25
83104;BME280;72975;48.134;11.630;2024-02-21T00:19:39;96511.84;;;4.52;66.66
83104;BME280;72975;48.134;11.630;2024-02-21T00:22:07;96516.00;;;4.59;66.53
83104;BME280;72975;48.134;11.630;2024-02-21T00:24:36;96514.78;;;4.68;66.45
83104;BME280;72975;48.134;11.630;2024-02-21T00:27:05;96506.66;;;4.58;66.30
83104;BME280;72975;48.134;11.630;2024-02-21T00:29:39;96503.91;;;4.53;66.70
83104;BME280;72975;48.134;11.630;2024-02-21T00:32:09;96500.88;;;4.56;66.48
83104;BME280;72975;48.134;11.630;2024-02-21T00:34:37;96497.94;;;4.53;66.66
83104;BME280;72975;48.134;11.630;2024-02-21T00:37:07;96499.53;;;4.54;66.50
83104;BME280;72975;48.134;11.630;2024-02-21T00:39:38;96494.56;;;4.52;66.83
83104;BME280;72975;48.134;11.630;2024-02-21T00:42:10;96494.72;;;4.44;67.28
83104;BME280;72975;48.134;11.630;2024-02-21T00:44:38;96483.81;;;4.42;67.25
83104;BME280;72975;48.134;11.630;2024-02-21T00:47:06;96478.84;;;4.47;67.05
83104;BME280;72975;48.134;11.630;2024-02-21T00:49:54;96478.84;;;4.40;67.48
83104;BME280;72975;48.134;11.630;2024-02-21T00:52:22;96474.66;;;4.46;67.25
83104;BME280;72975;48.134;11.630;2024-02-21T00:54:50;96470.69;;;4.44;67.04
83104;BME280;72975;48.134;11.630;2024-02-21T00:57:21;96483.00;;;4.48;67.42
83104;BME280;72975;48.134;11.630;2024-02-21T00:59:49;96483.41;;;4.52;67.14
83104;BME280;72975;48.134;11.630;2024-02-21T01:02:19;96476.06;;;4.49;67.34
83104;BME280;72975;48.134;11.630;2024-02-21T01:04:50;96478.41;;;4.57;66.79
83104;BME280;72975;48.134;11.630;2024-02-21T01:07:18;96483.03;;;4.42;67.29
83104;BME280;72975;48.134;11.630;2024-02-21T01:09:47;96476.47;;;4.52;66.96
83104;BME280;72975;48.134;11.630;2024-02-21T01:12:17;96478.41;;;4.57;67.04
83104;BME280;72975;48.134;11.630;2024-02-21T01:14:45;96467.91;;;4.38;67.44
83104;BME280;72975;48.134;11.630;2024-02-21T01:17:22;96465.94;;;4.40;67.55
83104;BME280;72975;48.134;11.630;2024-02-21T01:19:50;96473.06;;;4.52;67.41
83104;BME280;72975;48.134;11.630;2024-02-21T01:22:26;96461.91;;;4.58;67.19
83104;BME280;72975;48.134;11.630;2024-02-21T01:24:58;96465.31;;;4.65;66.86
83104;BME280;72975;48.134;11.630;2024-02-21T01:27:28;96453.94;;;4.66;66.71
83104;BME280;72975;48.134;11.630;2024-02-21T01:30:04;96452.19;;;4.60;66.68
83104;BME280;72975;48.134;11.630;2024-02-21T01:32:33;96448.78;;;4.59;66.71
83104;BME280;72975;48.134;11.630;2024-02-21T01:35:01;96452.38;;;4.65;66.55
83104;BME280;72975;48.134;11.630;2024-02-21T01:37:29;96450.78;;;4.64;66.59
83104;BME280;72975;48.134;11.630;2024-02-21T01:40:01;96450.19;;;4.55;67.05
83104;BME280;72975;48.134;11.630;2024-02-21T01:42:32;96449.41;;;4.61;66.61
83104;BME280;72975;48.134;11.630;2024-02-21T01:45:02;96444.84;;;4.50;66.78
83104;BME280;72975;48.134;11.630;2024-02-21T01:47:30;96447.41;;;4.57;66.79
83104;BME280;72975;48.134;11.630;2024-02-21T01:50:00;96436.88;;;4.65;66.74
83104;BME280;72975;48.134;11.630;2024-02-21T01:52:31;96435.66;;;4.61;66.56
83104;BME280;72975;48.134;11.630;2024-02-21T01:55:02;96429.69;;;4.67;66.57
83104;BME280;72975;48.134;11.630;2024-02-21T01:57:40;96400.72;;;4.38;67.18
83104;BME280;72975;48.134;11.630;2024-02-21T02:00:11;96414.63;;;4.44;67.22
83104;BME280;72975;48.134;11.630;2024-02-21T02:02:41;96409.00;;;4.67;66.53
83104;BME280;72975;48.134;11.630;2024-02-21T02:05:12;96417.59;;;4.48;67.04
83104;BME280;72975;48.134;11.630;2024-02-21T02:07:40;96409.44;;;4.57;66.67
83104;BME280;72975;48.134;11.630;2024-02-21T02:10:08;96405.06;;;4.64;66.63
83104;BME280;72975;48.134;11.630;2024-02-21T02:12:37;96406.25;;;4.62;67.13
83104;BME280;72975;48.134;11.630;2024-02-21T02:15:05;96402.22;;;4.72;66.35
83104;BME280;72975;48.134;11.630;2024-02-21T02:17:33;96397.66;;;4.68;66.47
83104;BME280;72975;48.134;11.630;2024-02-21T02:20:04;96399.13;;;4.51;67.16
83104;BME280;72975;48.134;11.630;2024-02-21T02:22:43;96394.94;;;4.50;67.04
83104;BME280;72975;48.134;11.630;2024-02-21T02:25:11;96399.47;;;4.61;66.82
83104;BME280;72975;48.134;11.630;2024-02-21T02:27:43;96393.72;;;4.59;66.74
83104;BME280;72975;48.134;11.630;2024-02-21T02:30:16;96387.59;;;4.53;66.96
83104;BME280;72975;48.134;11.630;2024-02-21T02:32:45;96386.75;;;4.59;66.50
83104;BME280;72975;48.134;11.630;2024-02-21T02:35:16;96383.63;;;4.44;66.97
83104;BME280;72975;48.134;11.630;2024-02-21T02:37:49;96372.44;;;4.57;66.65
83104;BME280;72975;48.134;11.630;2024-02-21T02:40:22;96374.44;;;4.61;66.30
83104;BME280;72975;48.134;11.630;2024-02-21T02:42:52;96373.81;;;4.66;66.21
83104;BME280;72975;48.134;11.630;2024-02-21T02:45:23;96372.47;;;4.50;66.78
83104;BME280;72975;48.134;11.630;2024-02-21T02:47:56;96368.66;;;4.59;66.59
83104;BME280;72975;48.134;11.630;2024-02-21T02:50:26;96354.16;;;4.65;66.16
83104;BME280;72975;48.134;11.630;2024-02-21T02:52:54;96365.25;;;4.65;65.96
83104;BME280;72975;48.134;11.630;2024-02-21T02:55:23;96356.09;;;4.69;65.95
83104;BME280;72975;48.134;11.630;2024-02-21T02:57:51;96277.53;;;4.26;65.58
83104;BME280;72975;48.134;11.630;2024-02-21T03:00:19;96345.25;;;4.54;66.01
83104;BME280;72975;48.134;11.630;2024-02-21T03:02:49;96344.16;;;4.68;65.47
83104;BME280;72975;48.134;11.630;2024-02-21T03:05:19;96345.75;;;4.69;65.39
83104;BME280;72975;48.134;11.630;2024-02-21T03:07:53;96343.59;;;4.60;65.70
83104;BME280;72975;48.134;11.630;2024-02-21T03:10:25;96341.81;;;4.60;65.74
83104;BME280;72975;48.134;11.630;2024-02-21T03:12:55;96336.22;;;4.70;65.27
83104;BME280;72975;48.134;11.630;2024-02-21T03:15:23;96336.59;;;4.67;65.24
83104;BME280;72975;48.134;11.630;2024-02-21T03:17:54;96334.63;;;4.69;64.98
83104;BME280;72975;48.134;11.630;2024-02-21T03:20:22;96337.00;;;4.70;65.05
83104;BME280;72975;48.134;11.630;2024-02-21T03:22:50;96334.41;;;4.70;65.00
83104;BME280;72975;48.134;11.630;2024-02-21T03:25:23;96331.97;;;4.82;64.39
83104;BME280;72975;48.134;11.630;2024-02-21T03:27:51;96341.97;;;4.72;64.79
83104;BME280;72975;48.134;11.630;2024-02-21T03:30:20;96339.19;;;4.73;64.63
83104;BME280;72975;48.134;11.630;2024-02-21T03:32:51;96334.31;;;4.52;65.10
83104;BME280;72975;48.134;11.630;2024-02-21T03:35:36;96260.50;;;4.18;64.72
83104;BME280;72975;48.134;11.630;2024-02-21T03:38:04;96334.59;;;4.75;64.85
83104;BME280;72975;48.134;11.630;2024-02-21T03:40:32;96333.81;;;4.75;64.65
83104;BME280;72975;48.134;11.630;2024-02-21T03:43:03;96334.59;;;4.75;64.50
83104;BME280;72975;48.134;11.630;2024-02-21T03:45:31;96333.03;;;4.74;64.67
83104;BME280;72975;48.134;11.630;2024-02-21T03:47:58;96340.97;;;4.73;64.61
83104;BME280;72975;48.134;11.630;2024-02-21T03:50:29;96343.81;;;4.65;64.83
83104;BME280;72975;48.134;11.630;2024-02-21T03:53:00;96336.16;;;4.76;64.81
83104;BME280;72975;48.134;11.630;2024-02-21T03:55:31;96336.59;;;4.67;65.14
83104;BME280;72975;48.134;11.630;2024-02-21T03:58:01;96332.22;;;4.74;64.89
83104;BME280;72975;48.134;11.630;2024-02-21T04:00:31;96332.69;;;4.58;65.63
83104;BME280;72975;48.134;11.630;2024-02-21T04:02:59;96332.66;;;4.64;65.20
83104;BME280;72975;48.134;11.630;2024-02-21T04:05:27;96331.28;;;4.62;65.31
83104;BME280;72975;48.134;11.630;2024-02-21T04:07:57;96327.41;;;4.77;64.65
83104;BME280;72975;48.134;11.630;2024-02-21T04:10:29;96324.22;;;4.82;64.89
83104;BME280;72975;48.134;11.630;2024-02-21T04:12:56;96321.28;;;4.72;64.83
83104;BME280;72975;48.134;11.630;2024-02-21T04:15:27;96315.41;;;4.90;64.67
83104;BME280;72975;48.134;11.630;2024-02-21T04:17:54;96318.47;;;4.80;64.99
83104;BME280;72975;48.134;11.630;2024-02-21T04:20:25;96316.47;;;4.82;64.84
83104;BME280;72975;48.134;11.630;2024-02-21T04:22:55;96316.75;;;4.61;65.28
83104;BME280;72975;48.134;11.630;2024-02-21T04:25:25;96317.72;;;4.73;64.87
83104;BME280;72975;48.134;11.630;2024-02-21T04:27:56;96306.38;;;4.74;64.86
83104;BME280;72975;48.134;11.630;2024-02-21T04:30:23;96308.13;;;4.80;64.53
83104;BME280;72975;48.134;11.630;2024-02-21T04:32:51;96301.91;;;4.88;64.36
83104;BME280;72975;48.134;11.630;2024-02-21T04:35:19;96302.34;;;4.78;64.12
83104;BME280;72975;48.134;11.630;2024-02-21T04:37:49;96303.41;;;4.70;64.13
83104;BME280;72975;48.134;11.630;2024-02-21T04:40:17;96299.56;;;4.80;64.09
83104;BME280;72975;48.134;11.630;2024-02-21T04:42:45;96299.22;;;4.69;64.74
83104;BME280;72975;48.134;11.630;2024-02-21T04:45:13;96297.03;;;4.73;64.48
83104;BME280;72975;48.134;11.630;2024-02-21T04:47:44;96292.22;;;4.76;64.22
83104;BME280;72975;48.134;11.630;2024-02-21T04:50:12;96286.34;;;4.56;64.77
83104;BME280;72975;48.134;11.630;2024-02-21T04:52:42;96280.56;;;4.61;64.76
83104;BME280;72975;48.134;11.630;2024-02-21T04:55:13;96280.00;;;4.59;64.81
83104;BME280;72975;48.134;11.630;2024-02-21T04:57:48;96271.69;;;4.50;65.10
83104;BME280;72975;48.134;11.630;2024-02-21T05:00:18;96276.22;;;4.55;64.94
83104;BME280;72975;48.134;11.630;2024-02-21T05:02:58;96260.31;;;4.58;64.80
83104;BME280;72975;48.134;11.630;2024-02-21T05:05:30;96253.19;;;4.47;65.38
83104;BME280;72975;48.134;11.630;2024-02-21T05:08:03;96254.41;;;4.44;65.35
83104;BME280;72975;48.134;11.630;2024-02-21T05:10:31;96249.88;;;4.33;65.77
83104;BME280;72975;48.134;11.630;2024-02-21T05:13:18;96247.69;;;4.36;65.62
83104;BME280;72975;48.134;11.630;2024-02-21T05:15:49;96243.44;;;4.11;66.13
83104;BME280;72975;48.134;11.630;2024-02-21T05:18:20;96243.03;;;4.07;66.52
83104;BME280;72975;48.134;11.630;2024-02-21T05:20:48;96238.84;;;4.19;66.08
83104;BME280;72975;48.134;11.630;2024-02-21T05:23:16;96233.88;;;4.11;66.27
83104;BME280;72975;48.134;11.630;2024-02-21T05:25:49;96230.56;;;3.97;66.64
83104;BME280;72975;48.134;11.630;2024-02-21T05:28:17;96194.22;;;3.92;66.83
83104;BME280;72975;48.134;11.630;2024-02-21T05:30:47;96225.59;;;3.96;66.55
83104;BME280;72975;48.134;11.630;2024-02-21T05:33:17;96217.84;;;3.96;66.92
83104;BME280;72975;48.134;11.630;2024-02-21T05:35:49;96220.84;;;3.99;66.69
83104;BME280;72975;48.134;11.630;2024-02-21T05:38:19;96219.69;;;3.82;67.39
83104;BME280;72975;48.134;11.630;2024-02-21T05:40:57;96227.81;;;3.86;67.37
83104;BME280;72975;48.134;11.630;2024-02-21T05:43:27;96217.50;;;3.79;67.47
83104;BME280;72975;48.134;11.630;2024-02-21T05:45:59;96204.63;;;3.73;67.60
83104;BME280;72975;48.134;11.630;2024-02-21T05:48:28;96206.03;;;3.62;67.56
83104;BME280;72975;48.134;11.630;2024-02-21T05:51:08;96208.03;;;3.60;67.76
83104;BME280;72975;48.134;11.630;2024-02-21T05:53:37;96203.25;;;3.63;67.79
83104;BME280;72975;48.134;11.630;2024-02-21T05:56:15;96201.28;;;3.65;67.39
83104;BME280;72975;48.134;11.630;2024-02-21T05:58:44;96193.16;;;3.55;67.78
83104;BME280;72975;48.134;11.630;2024-02-21T06:01:34;96190.38;;;3.57;67.85
83104;BME280;72975;48.134;11.630;2024-02-21T06:04:10;96175.47;;;3.59;67.40
83104;BME280;72975;48.134;11.630;2024-02-21T06:06:43;96178.41;;;3.69;67.02
83104;BME280;72975;48.134;11.630;2024-02-21T06:09:11;96174.47;;;3.66;67.45
83104;BME280;72975;48.134;11.630;2024-02-21T06:11:38;96177.41;;;3.77;67.34
83104;BME280;72975;48.134;11.630;2024-02-21T06:14:09;96180.00;;;3.77;66.95
83104;BME280;72975;48.134;11.630;2024-02-21T06:16:36;96181.63;;;3.58;67.25
83104;BME280;72975;48.134;11.630;2024-02-21T06:19:06;96183.22;;;3.59;67.37
83104;BME280;72975;48.134;11.630;2024-02-21T06:21:49;96192.31;;;3.68;66.92
83104;BME280;72975;48.134;11.630;2024-02-21T06:24:19;96184.22;;;3.64;66.97
83104;BME280;72975;48.134;11.630;2024-02-21T06:26:46;96187.00;;;3.56;67.06
83104;BME280;72975;48.134;11.630;2024-02-21T06:29:16;96183.03;;;3.54;67.34
83104;BME280;72975;48.134;11.630;2024-02-21T06:31:47;96169.31;;;3.60;66.83
83104;BME280;72975;48.134;11.630;2024-02-21T06:34:17;96168.34;;;3.54;67.09
83104;BME280;72975;48.134;11.630;2024-02-21T06:36:45;96171.53;;;3.50;67.02
83104;BME280;72975;48.134;11.630;2024-02-21T06:39:13;96171.31;;;3.58;66.56
83104;BME280;72975;48.134;11.630;2024-02-21T06:41:44;96175.84;;;3.69;66.24
83104;BME280;72975;48.134;11.630;2024-02-21T06:44:11;96171.53;;;3.56;66.43
83104;BME280;72975;48.134;11.630;2024-02-21T06:46:42;96177.63;;;3.68;66.20
83104;BME280;72975;48.134;11.630;2024-02-21T06:49:10;96180.78;;;3.77;65.94
83104;BME280;72975;48.134;11.630;2024-02-21T06:51:44;96182.75;;;3.82;65.55
83104;BME280;72975;48.134;11.630;2024-02-21T06:54:12;96176.00;;;3.81;65.52
83104;BME280;72975;48.134;11.630;2024-02-21T06:56:41;96176.53;;;3.96;64.93
83104;BME280;72975;48.134;11.630;2024-02-21T06:59:08;96176.91;;;4.06;64.44
83104;BME280;72975;48.134;11.630;2024-02-21T07:02:03;96180.69;;;4.03;64.39
83104;BME280;72975;48.134;11.630;2024-02-21T07:04:33;96179.28;;;4.01;64.48
83104;BME280;72975;48.134;11.630;2024-02-21T07:07:02;96174.91;;;4.01;64.30
83104;BME280;72975;48.134;11.630;2024-02-21T07:09:32;96078.84;;;3.48;64.23
83104;BME280;72975;48.134;11.630;2024-02-21T07:12:07;96163.78;;;4.08;64.21
83104;BME280;72975;48.134;11.630;2024-02-21T07:14:36;96163.97;;;4.06;64.24
83104;BME280;72975;48.134;11.630;2024-02-21T07:17:03;96167.34;;;4.07;64.32
83104;BME280;72975;48.134;11.630;2024-02-21T07:19:32;96168.91;;;4.14;64.37
83104;BME280;72975;48.134;11.630;2024-02-21T07:22:07;96171.03;;;4.24;64.37
83104;BME280;72975;48.134;11.630;2024-02-21T07:24:36;96173.81;;;4.22;64.47
83104;BME280;72975;48.134;11.630;2024-02-21T07:27:05;96165.88;;;4.24;64.65
83104;BME280;72975;48.134;11.630;2024-02-21T07:29:35;96165.47;;;4.27;64.25
83104;BME280;72975;48.134;11.630;2024-02-21T07:32:03;96165.06;;;4.30;64.08
83104;BME280;72975;48.134;11.630;2024-02-21T07:34:33;96156.09;;;4.32;64.10
83104;BME280;72975;48.134;11.630;2024-02-21T07:37:01;96159.69;;;4.31;63.59
83104;BME280;72975;48.134;11.630;2024-02-21T07:39:29;96157.31;;;4.30;63.54
83104;BME280;72975;48.134;11.630;2024-02-21T07:42:04;96160.69;;;4.30;63.72
83104;BME280;72975;48.134;11.630;2024-02-21T07:44:32;96070.72;;;3.89;63.41
83104;BME280;72975;48.134;11.630;2024-02-21T07:47:05;96148.88;;;4.41;63.32
83104;BME280;72975;48.134;11.630;2024-02-21T07:49:45;96150.59;;;4.54;63.09
83104;BME280;72975;48.134;11.630;2024-02-21T07:52:13;96145.75;;;4.64;62.54
83104;BME280;72975;48.134;11.630;2024-02-21T07:54:41;96138.44;;;4.86;62.02
83104;BME280;72975;48.134;11.630;2024-02-21T07:57:09;96134.09;;;4.80;62.14
83104;BME280;72975;48.134;11.630;2024-02-21T07:59:38;96130.88;;;4.84;61.87
83104;BME280;72975;48.134;11.630;2024-02-21T08:02:05;96128.44;;;4.89;61.80
83104;BME280;72975;48.134;11.630;2024-02-21T08:04:35;96120.22;;;5.90;59.58
83104;BME280;72975;48.134;11.630;2024-02-21T08:07:03;96114.63;;;5.57;59.75
83104;BME280;72975;48.134;11.630;2024-02-21T08:09:31;96103.16;;;7.47;55.94
83104;BME280;72975;48.134;11.630;2024-02-21T08:11:59;96092.22;;;7.57;54.18
83104;BME280;72975;48.134;11.630;2024-02-21T08:14:28;96079.72;;;7.30;54.60
83104;BME280;72975;48.134;11.630;2024-02-21T08:16:56;96069.47;;;8.32;52.19
83104;BME280;72975;48.134;11.630;2024-02-21T08:19:24;96067.47;;;8.90;50.16
83104;BME280;72975;48.134;11.630;2024-02-21T08:21:51;96057.75;;;9.62;48.08
83104;BME280;72975;48.134;11.630;2024-02-21T08:24:19;96059.75;;;10.31;46.45
83104;BME280;72975;48.134;11.630;2024-02-21T08:26:50;96069.59;;;10.23;45.66
83104;BME280;72975;48.134;11.630;2024-02-21T08:29:19;96067.31;;;10.59;44.47
83104;BME280;72975;48.134;11.630;2024-02-21T08:31:47;96065.09;;;11.20;43.09
83104;BME280;72975;48.134;11.630;2024-02-21T08:34:15;96061.75;;;12.02;42.21
83104;BME280;72975;48.134;11.630;2024-02-21T08:36:47;96057.91;;;12.30;41.13
83104;BME280;72975;48.134;11.630;2024-02-21T08:39:14;96062.56;;;12.13;40.93
83104;BME280;72975;48.134;11.630;2024-02-21T08:41:44;96055.81;;;12.83;39.45
83104;BME280;72975;48.134;11.630;2024-02-21T08:44:24;96067.59;;;12.75;40.01
83104;BME280;72975;48.134;11.630;2024-02-21T08:46:58;96071.38;;;14.13;37.46
83104;BME280;72975;48.134;11.630;2024-02-21T08:49:37;96070.72;;;13.87;37.50
83104;BME280;72975;48.134;11.630;2024-02-21T08:52:05;96076.28;;;14.69;35.92
83104;BME280;72975;48.134;11.630;2024-02-21T08:54:33;96061.13;;;14.89;36.41
83104;BME280;72975;48.134;11.630;2024-02-21T08:57:15;96063.50;;;14.86;35.81
83104;BME280;72975;48.134;11.630;2024-02-21T08:59:42;96066.72;;;15.59;34.39
83104;BME280;72975;48.134;11.630;2024-02-21T09:02:13;96066.84;;;15.73;33.93
83104;BME280;72975;48.134;11.630;2024-02-21T09:04:54;96062.84;;;15.52;33.64
83104;BME280;72975;48.134;11.630;2024-02-21T09:07:24;96066.00;;;15.54;32.94
83104;BME280;72975;48.134;11.630;2024-02-21T09:09:52;96060.19;;;15.57;32.57
83104;BME280;72975;48.134;11.630;2024-02-21T09:12:19;96065.19;;;14.72;33.25
83104;BME280;72975;48.134;11.630;2024-02-21T09:14:49;96063.47;;;14.18;35.01
83104;BME280;72975;48.134;11.630;2024-02-21T09:17:18;96062.69;;;14.17;35.26
83104;BME280;72975;48.134;11.630;2024-02-21T09:19:52;96062.88;;;14.70;33.63
83104;BME280;72975;48.134;11.630;2024-02-21T09:22:22;96055.25;;;15.93;32.55
83104;BME280;72975;48.134;11.630;2024-02-21T09:24:50;96068.41;;;14.69;33.43
83104;BME280;72975;48.134;11.630;2024-02-21T09:27:18;96065.75;;;15.26;32.84
83104;BME280;72975;48.134;11.630;2024-02-21T09:29:48;96070.59;;;15.67;32.08
83104;BME280;72975;48.134;11.630;2024-02-21T09:32:21;96074.53;;;15.17;32.42
83104;BME280;72975;48.134;11.630;2024-02-21T09:34:49;96066.00;;;14.72;32.24
83104;BME280;72975;48.134;11.630;2024-02-21T09:37:17;96066.31;;;14.94;31.99
83104;BME280;72975;48.134;11.630;2024-02-21T09:39:45;96061.75;;;15.58;30.74
83104;BME280;72975;48.134;11.630;2024-02-21T09:42:17;96062.47;;;14.53;32.34
83104;BME280;72975;48.134;11.630;2024-02-21T09:44:50;96063.06;;;16.22;30.80
83104;BME280;72975;48.134;11.630;2024-02-21T09:47:37;96056.84;;;15.94;30.99
83104;BME280;72975;48.134;11.630;2024-02-21T09:50:12;96054.66;;;16.20;29.81
83104;BME280;72975;48.134;11.630;2024-02-21T09:52:44;96048.16;;;16.31;30.09
83104;BME280;72975;48.134;11.630;2024-02-21T09:55:14;96048.56;;;16.89;28.97
83104;BME280;72975;48.134;11.630;2024-02-21T09:57:45;96051.66;;;17.24;29.31
83104;BME280;72975;48.134;11.630;2024-02-21T10:00:15;96039.38;;;16.35;30.28
83104;BME280;72975;48.134;11.630;2024-02-21T10:02:49;96045.09;;;15.39;30.23
83104;BME280;72975;48.134;11.630;2024-02-21T10:05:20;96049.81;;;15.42;30.50
83104;BME280;72975;48.134;11.630;2024-02-21T10:07:49;96042.19;;;16.06;30.43
83104;BME280;72975;48.134;11.630;2024-02-21T10:10:21;96049.34;;;16.01;30.38
83104;BME280;72975;48.134;11.630;2024-02-21T10:12:52;96037.78;;;15.12;31.46
83104;BME280;72975;48.134;11.630;2024-02-21T10:15:24;96031.00;;;16.15;30.84
83104;BME280;72975;48.134;11.630;2024-02-21T10:17:59;96025.38;;;16.02;29.95
83104;BME280;72975;48.134;11.630;2024-02-21T10:20:28;96032.75;;;16.75;29.06
83104;BME280;72975;48.134;11.630;2024-02-21T10:23:05;96030.16;;;15.58;30.70
83104;BME280;72975;48.134;11.630;2024-02-21T10:25:37;96030.44;;;15.99;30.25
83104;BME280;72975;48.134;11.630;2024-02-21T10:28:17;96022.00;;;15.59;30.84
83104;BME280;72975;48.134;11.630;2024-02-21T10:30:52;96024.59;;;16.02;30.20
83104;BME280;72975;48.134;11.630;2024-02-21T10:33:25;96022.66;;;16.64;28.93
83104;BME280;72975;48.134;11.630;2024-02-21T10:36:10;96011.69;;;17.17;29.01
83104;BME280;72975;48.134;11.630;2024-02-21T10:39:10;96004.00;;;15.00;31.37
83104;BME280;72975;48.134;11.630;2024-02-21T10:41:38;96005.88;;;16.03;30.51
83104;BME280;72975;48.134;11.630;2024-02-21T10:44:11;95991.53;;;15.77;30.47
83104;BME280;72975;48.134;11.630;2024-02-21T10:46:43;95980.09;;;16.38;30.98
83104;BME280;72975;48.134;11.630;2024-02-21T10:49:22;95977.88;;;15.51;31.04
83104;BME280;72975;48.134;11.630;2024-02-21T10:52:21;95971.13;;;16.71;28.69
83104;BME280;72975;48.134;11.630;2024-02-21T10:55:09;95965.16;;;16.15;28.43
83104;BME280;72975;48.134;11.630;2024-02-21T10:57:40;95957.56;;;16.13;27.65
83104;BME280;72975;48.134;11.630;2024-02-21T11:00:10;95950.94;;;16.16;28.36
83104;BME280;72975;48.134;11.630;2024-02-21T11:02:43;95939.91;;;16.92;27.63
83104;BME280;72975;48.134;11.630;2024-02-21T11:05:12;95936.50;;;15.38;28.71
83104;BME280;72975;48.134;11.630;2024-02-21T11:07:42;95939.44;;;15.93;28.47
83104;BME280;72975;48.134;11.630;2024-02-21T11:10:24;95926.59;;;14.87;29.75
83104;BME280;72975;48.134;11.630;2024-02-21T11:13:10;95923.13;;;16.10;28.42
83104;BME280;72975;48.134;11.630;2024-02-21T11:15:43;95914.50;;;16.36;27.58
83104;BME280;72975;48.134;11.630;2024-02-21T11:18:24;95910.41;;;16.30;27.48
83104;BME280;72975;48.134;11.630;2024-02-21T11:21:01;95908.63;;;15.93;27.54
83104;BME280;72975;48.134;11.630;2024-02-21T11:23:33;95893.94;;;16.38;27.23
83104;BME280;72975;48.134;11.630;2024-02-21T11:26:12;95893.88;;;15.60;27.19
83104;BME280;72975;48.134;11.630;2024-02-21T11:29:09;95890.75;;;15.77;25.38
83104;BME280;72975;48.134;11.630;2024-02-21T11:31:46;95886.59;;;15.70;26.61
83104;BME280;72975;48.134;11.630;2024-02-21T11:34:29;95874.81;;;15.68;26.39
83104;BME280;72975;48.134;11.630;2024-02-21T11:37:16;95875.59;;;15.68;25.72
83104;BME280;72975;48.134;11.630;2024-02-21T11:39:45;95867.75;;;15.82;25.92
83104;BME280;72975;48.134;11.630;2024-02-21T11:42:28;95803.72;;;15.87;25.10
83104;BME280;72975;48.134;11.630;2024-02-21T11:45:06;95850.31;;;15.86;24.90
83104;BME280;72975;48.134;11.630;2024-02-21T11:47:35;95846.84;;;16.04;26.26
83104;BME280;72975;48.134;11.630;2024-02-21T11:50:15;95844.44;;;16.08;26.75
83104;BME280;72975;48.134;11.630;2024-02-21T11:52:54;95834.31;;;16.56;26.54
83104;BME280;72975;48.134;11.630;2024-02-21T11:55:24;95842.38;;;14.97;27.12
83104;BME280;72975;48.134;11.630;2024-02-21T11:57:54;95838.75;;;15.50;27.02
83104;BME280;72975;48.134;11.630;2024-02-21T12:00:48;95821.19;;;15.96;27.17
83104;BME280;72975;48.134;11.630;2024-02-21T12:03:54;95818.47;;;16.01;27.48
83104;BME280;72975;48.134;11.630;2024-02-21T12:06:38;95807.56;;;16.08;25.95
83104;BME280;72975;48.134;11.630;2024-02-21T12:09:08;95796.84;;;16.46;25.45
83104;BME280;72975;48.134;11.630;2024-02-21T12:12:04;95798.03;;;16.26;25.72
83104;BME280;72975;48.134;11.630;2024-02-21T12:14:45;95790.25;;;16.62;25.60
83104;BME280;72975;48.134;11.630;2024-02-21T12:17:14;95791.34;;;16.01;26.40
83104;BME280;72975;48.134;11.630;2024-02-21T12:19:42;95788.06;;;16.09;26.44
83104;BME280;72975;48.134;11.630;2024-02-21T12:22:21;95782.75;;;15.82;26.75
83104;BME280;72975;48.134;11.630;2024-02-21T12:25:23;95783.97;;;16.44;25.85
83104;BME280;72975;48.134;11.630;2024-02-21T12:27:58;95770.00;;;16.57;26.49
83104;BME280;72975;48.134;11.630;2024-02-21T12:30:37;95721.72;;;16.48;24.84
83104;BME280;72975;48.134;11.630;2024-02-21T12:33:08;95763.81;;;17.03;24.96
83104;BME280;72975;48.134;11.630;2024-02-21T12:35:58;95762.38;;;16.97;24.42
83104;BME280;72975;48.134;11.630;2024-02-21T12:38:45;95695.44;;;16.70;23.85
83104;BME280;72975;48.134;11.630;2024-02-21T12:41:56;95745.84;;;17.27;24.32
83104;BME280;72975;48.134;11.630;2024-02-21T12:44:25;95745.03;;;16.68;24.02
83104;BME280;72975;48.134;11.630;2024-02-21T12:46:53;95734.13;;;16.48;23.53
83104;BME280;72975;48.134;11.630;2024-02-21T12:49:25;95733.75;;;16.90;22.81
83104;BME280;72975;48.134;11.630;2024-02-21T12:52:06;95720.88;;;16.89;22.81
83104;BME280;72975;48.134;11.630;2024-02-21T12:54:36;95716.28;;;17.17;23.45
83104;BME280;72975;48.134;11.630;2024-02-21T12:57:10;95709.88;;;16.87;23.25
83104;BME280;72975;48.134;11.630;2024-02-21T12:59:41;95706.88;;;17.46;23.82
83104;BME280;72975;48.134;11.630;2024-02-21T13:02:14;95702.28;;;17.07;24.62
83104;BME280;72975;48.134;11.630;2024-02-21T13:04:46;95702.97;;;17.22;23.59
83104;BME280;72975;48.134;11.630;2024-02-21T13:07:31;95690.59;;;17.31;23.02
83104;BME280;72975;48.134;11.630;2024-02-21T13:10:04;95686.06;;;17.00;20.97
83104;BME280;72975;48.134;11.630;2024-02-21T13:12:57;95671.69;;;16.34;20.61
83104;BME280;72975;48.134;11.630;2024-02-21T13:15:34;95673.78;;;16.73;21.89
83104;BME280;72975;48.134;11.630;2024-02-21T13:18:13;95667.56;;;16.92;21.41
83104;BME280;72975;48.134;11.630;2024-02-21T13:20:47;95656.81;;;17.10;21.28
83104;BME280;72975;48.134;11.630;2024-02-21T13:23:23;95650.72;;;16.79;21.68
83104;BME280;72975;48.134;11.630;2024-02-21T13:25:53;95648.03;;;16.93;22.19